createdAt,value
2018-05-10T00:00:35.855Z,6.31
2018-05-10T00:06:30.818Z,6.25
2018-05-10T00:12:25.857Z,5.96
2018-05-10T00:18:20.869Z,5.66
2018-05-10T00:24:15.982Z,5.77
2018-05-10T00:30:10.862Z,5.91
2018-05-10T00:36:05.854Z,6.49
2018-05-10T00:42:00.854Z,5.81
2018-05-10T00:47:55.887Z,7.38
2018-05-10T00:53:50.898Z,6.21
2018-05-10T00:59:45.861Z,7.1
2018-05-10T01:05:40.872Z,7
2018-05-10T01:11:35.899Z,7.13
2018-05-10T01:17:30.871Z,6.72
2018-05-10T01:23:25.901Z,6.48
2018-05-10T01:29:20.904Z,7.02
2018-05-10T01:35:15.875Z,6.93
2018-05-10T01:41:10.886Z,7.25
2018-05-10T01:47:05.942Z,6.8
2018-05-10T01:53:00.894Z,7.07
2018-05-10T01:58:55.883Z,7.2
2018-05-10T02:04:50.893Z,6.6
2018-05-10T02:10:45.888Z,6.88
2018-05-10T02:16:40.907Z,6.83
2018-05-10T02:22:35.976Z,6.97
2018-05-10T02:28:30.906Z,7.09
2018-05-10T02:34:25.973Z,7.65
2018-05-10T02:40:20.936Z,7.5
2018-05-10T02:46:15.965Z,7.34
2018-05-10T02:52:10.976Z,8.02
2018-05-10T02:58:05.990Z,7.89
2018-05-10T03:04:00.944Z,8.4
2018-05-10T03:09:55.955Z,9.8
2018-05-10T03:15:50.986Z,10.52
2018-05-10T03:21:45.947Z,9.27
2018-05-10T03:27:40.946Z,8.75
2018-05-10T03:33:35.932Z,8.36
2018-05-10T03:39:30.982Z,8.19
2018-05-10T03:45:25.965Z,8.72
2018-05-10T03:51:20.975Z,8.25
2018-05-10T03:57:15.964Z,8.32
2018-05-10T04:03:10.988Z,7.98
2018-05-10T04:09:05.978Z,7.64
2018-05-10T04:15:00.960Z,8.03
2018-05-10T04:20:55.961Z,8.15
2018-05-10T04:26:50.980Z,8.61
2018-05-10T04:32:46.011Z,7.11
2018-05-10T04:38:40.997Z,7.81
2018-05-10T04:44:36.014Z,12.25
2018-05-10T04:50:31.011Z,14.53
2018-05-10T04:56:26.027Z,13.66
2018-05-10T05:02:20.999Z,10.79
2018-05-10T05:08:16.015Z,13.11
2018-05-10T05:14:11.024Z,13.25
2018-05-10T05:20:06.011Z,12.98
2018-05-10T05:26:01.028Z,13.01
2018-05-10T05:31:56.014Z,11.05
2018-05-10T05:37:51.025Z,10.47
2018-05-10T05:43:46.004Z,9.49
2018-05-10T05:49:40.998Z,9.95
2018-05-10T05:55:36.037Z,10.45
2018-05-10T06:01:31.049Z,14.83
2018-05-10T06:07:26.035Z,19.77
2018-05-10T06:13:21.098Z,17.35
2018-05-10T06:19:16.067Z,16.81
2018-05-10T06:25:11.201Z,14.12
2018-05-10T06:31:06.037Z,15.66
2018-05-10T06:37:01.025Z,18.7
2018-05-10T06:42:56.064Z,16.63
2018-05-10T06:48:51.099Z,16.66
2018-05-10T06:54:46.122Z,16.81
2018-05-10T07:00:41.067Z,16.39
2018-05-10T07:06:36.081Z,17.88
2018-05-10T07:12:31.062Z,16.43
2018-05-10T07:18:26.091Z,15.31
2018-05-10T07:24:21.074Z,15.1
2018-05-10T07:30:16.078Z,15.8
2018-05-10T07:36:11.083Z,14.65
2018-05-10T07:42:06.171Z,20.43
2018-05-10T07:48:01.111Z,19.48
2018-05-10T07:53:56.111Z,14.92
2018-05-10T07:59:51.113Z,17.43
2018-05-10T08:05:46.120Z,17.37
2018-05-10T08:11:41.077Z,18.72
2018-05-10T08:17:36.091Z,20.73
2018-05-10T08:23:31.106Z,21.83
2018-05-10T08:29:26.131Z,19.63
2018-05-10T08:35:21.134Z,18.54
2018-05-10T08:41:16.105Z,17.6
2018-05-10T08:47:11.185Z,17.59
2018-05-10T08:53:06.137Z,16.37
2018-05-10T08:59:01.131Z,12.65
2018-05-10T09:04:56.122Z,15.43
2018-05-10T09:10:51.164Z,14.97
2018-05-10T09:16:46.154Z,13.17
2018-05-10T09:22:41.149Z,10.15
2018-05-10T09:28:36.144Z,15.38
2018-05-10T09:34:31.194Z,13.18
2018-05-10T09:40:26.145Z,9.78
2018-05-10T09:46:21.147Z,10.32
2018-05-10T09:52:16.215Z,11.49
2018-05-10T09:58:11.166Z,11.02
2018-05-10T10:04:06.164Z,9.95
2018-05-10T10:10:01.173Z,9.26
2018-05-10T10:15:56.190Z,9.79
2018-05-10T10:21:51.161Z,10.58
2018-05-10T10:27:46.228Z,7.05
2018-05-10T10:33:41.155Z,7.67
2018-05-10T10:39:36.168Z,6.86
2018-05-10T10:45:31.230Z,5.83
2018-05-10T10:51:26.184Z,6.8
2018-05-10T10:57:21.167Z,7.4
2018-05-10T11:03:16.188Z,7.28
2018-05-10T11:09:11.217Z,7.5
2018-05-10T11:15:06.354Z,6.24
2018-05-10T11:21:01.237Z,5.92
2018-05-10T11:26:56.213Z,6.67
2018-05-10T11:32:51.266Z,7.34
2018-05-10T11:38:46.226Z,6.39
2018-05-10T11:44:41.249Z,6.89
2018-05-10T11:50:36.227Z,5.38
2018-05-10T11:56:31.265Z,5.28
2018-05-10T12:02:26.264Z,4.63
2018-05-10T12:08:21.241Z,5.1
2018-05-10T12:14:16.231Z,5.03
2018-05-10T12:20:11.245Z,5.14
2018-05-10T12:26:06.287Z,5.09
2018-05-10T12:32:01.254Z,4.91
2018-05-10T12:37:56.261Z,5.01
2018-05-10T12:43:51.247Z,5.23
2018-05-10T12:49:46.263Z,6.25
2018-05-10T12:55:41.303Z,5.27
2018-05-10T13:01:36.285Z,4.89
2018-05-10T13:07:31.433Z,4.54
2018-05-10T13:13:26.355Z,4.29
2018-05-10T13:19:21.408Z,3.42
2018-05-10T13:25:16.257Z,5.45
2018-05-10T13:31:11.302Z,4.76
2018-05-10T13:37:06.280Z,4.12
2018-05-10T13:43:01.334Z,3.87
2018-05-10T13:48:56.269Z,4.92
2018-05-10T13:54:51.319Z,5.32
2018-05-10T14:00:46.309Z,4.25
2018-05-10T14:06:41.306Z,4.82
2018-05-10T14:12:36.303Z,4.11
2018-05-10T14:18:31.306Z,4.63
2018-05-10T14:24:26.322Z,6.11
2018-05-10T14:30:21.328Z,6.74
2018-05-10T14:36:16.298Z,7.2
2018-05-10T14:42:11.326Z,5.84
2018-05-10T14:48:06.310Z,6.56
2018-05-10T14:54:01.436Z,4.1
2018-05-10T14:59:56.385Z,4.01
2018-05-10T15:05:51.383Z,4.47
2018-05-10T15:11:46.364Z,4.53
2018-05-10T15:17:41.363Z,4.71
2018-05-10T15:23:36.478Z,3.93
2018-05-10T15:29:31.379Z,3.97
2018-05-10T15:35:26.437Z,3.67
2018-05-10T15:41:21.366Z,3.4
2018-05-10T15:47:16.363Z,4.42
2018-05-10T15:53:11.375Z,3.94
2018-05-10T15:59:06.391Z,4.29
2018-05-10T16:05:01.412Z,3.97
2018-05-10T16:10:56.364Z,3.65
2018-05-10T16:16:51.378Z,3.57
2018-05-10T16:22:46.409Z,3.95
2018-05-10T16:28:41.379Z,2.88
2018-05-10T16:34:36.367Z,2.67
2018-05-10T16:40:31.368Z,2.34
2018-05-10T16:46:26.387Z,1.9
2018-05-10T16:52:21.375Z,2.23
2018-05-10T16:58:16.431Z,2.88
2018-05-10T17:04:11.389Z,2.78
2018-05-10T17:10:06.400Z,3.48
2018-05-10T17:16:01.504Z,2.95
2018-05-10T17:21:56.435Z,3.94
2018-05-10T17:27:51.453Z,3.51
2018-05-10T17:33:46.416Z,2.65
2018-05-10T17:39:41.467Z,4.16
2018-05-10T17:45:36.409Z,3.59
2018-05-10T17:51:31.414Z,3.2
2018-05-10T17:57:26.463Z,3.53
2018-05-10T18:03:21.473Z,3.35
2018-05-10T18:09:16.422Z,3.24
2018-05-10T18:15:11.421Z,3.25
2018-05-10T18:21:06.449Z,3.23
2018-05-10T18:27:01.485Z,3.05
2018-05-10T18:32:56.467Z,3.94
2018-05-10T18:38:51.457Z,3.96
2018-05-10T18:44:46.477Z,3.9
2018-05-10T18:50:41.467Z,3.61
2018-05-10T18:56:36.462Z,3.79
2018-05-10T19:02:31.478Z,4.03
2018-05-10T19:08:26.468Z,4.36
2018-05-10T19:14:21.481Z,4.93
2018-05-10T19:20:16.447Z,4.22
2018-05-10T19:26:11.498Z,3.96
2018-05-10T19:32:06.520Z,4.51
2018-05-10T19:38:01.488Z,3.96
2018-05-10T19:43:56.499Z,4.12
2018-05-10T19:49:51.475Z,4.6
2018-05-10T19:55:46.496Z,4.77
2018-05-10T20:01:41.500Z,6.17
2018-05-10T20:07:36.541Z,4.69
2018-05-10T20:13:31.554Z,4.37
2018-05-10T20:19:26.507Z,3.94
2018-05-10T20:25:21.530Z,4.39
2018-05-10T20:31:16.627Z,4.35
2018-05-10T20:37:11.510Z,4.65
2018-05-10T20:43:06.582Z,4.08
2018-05-10T20:49:01.538Z,4.4
2018-05-10T20:54:56.551Z,5.14
2018-05-10T21:00:51.514Z,4.2
2018-05-10T21:06:46.583Z,4.77
2018-05-10T21:12:41.519Z,4.67
2018-05-10T21:18:36.562Z,4.87
2018-05-10T21:24:31.543Z,5.4
2018-05-10T21:30:26.557Z,5.7
2018-05-10T21:36:21.596Z,5.16
2018-05-10T21:42:16.530Z,4.94
2018-05-10T21:48:11.583Z,4.99
2018-05-10T21:54:06.561Z,5.59
2018-05-10T22:00:01.660Z,5.09
2018-05-10T22:05:56.558Z,5.45
2018-05-10T22:11:51.597Z,5.27
2018-05-10T22:17:46.589Z,5.18
2018-05-10T22:23:41.554Z,5.33
2018-05-10T22:29:36.555Z,5.31
2018-05-10T22:35:31.658Z,5.5
2018-05-10T22:41:26.569Z,4.8
2018-05-10T22:47:21.612Z,5.68
2018-05-10T22:53:16.589Z,6.06
2018-05-10T22:59:11.599Z,5.37
2018-05-10T23:05:06.580Z,5.25
2018-05-10T23:11:01.671Z,5.38
2018-05-10T23:16:56.637Z,6
2018-05-10T23:22:51.618Z,5.61
2018-05-10T23:28:46.603Z,5.64
2018-05-10T23:34:41.618Z,5.52
2018-05-10T23:40:36.670Z,6.06
2018-05-10T23:46:31.618Z,5.51
2018-05-10T23:52:26.654Z,5.85
2018-05-10T23:58:21.667Z,5.28
